sensor_id;sensor_type;location;lat;lon;timestamp;temperature;humidity
4749;DHT22;2388;53.582;9.962;2023-05-24T00:01:29;11.90;99.90
4749;DHT22;2388;53.582;9.962;2023-05-24T00:03:55;11.90;99.90
4749;DHT22;2388;53.582;9.962;2023-05-24T00:06:24;11.80;99.90
4749;DHT22;2388;53.582;9.962;2023-05-24T00:08:51;11.80;99.90
4749;DHT22;2388;53.582;9.962;2023-05-24T00:11:17;11.90;99.90
4749;DHT22;2388;53.582;9.962;2023-05-24T00:13:43;11.80;99.90
4749;DHT22;2388;53.582;9.962;2023-05-24T00:16:09;11.80;99.90
4749;DHT22;2388;53.582;9.962;2023-05-24T00:18:35;11.80;99.90
4749;DHT22;2388;53.582;9.962;2023-05-24T00:21:05;11.90;99.90
4749;DHT22;2388;53.582;9.962;2023-05-24T00:23:32;11.90;99.90
4749;DHT22;2388;53.582;9.962;2023-05-24T00:25:57;12.00;99.90
4749;DHT22;2388;53.582;9.962;2023-05-24T00:28:22;12.00;99.90
4749;DHT22;2388;53.582;9.962;2023-05-24T00:30:48;12.00;99.90
4749;DHT22;2388;53.582;9.962;2023-05-24T00:33:15;12.00;99.90
4749;DHT22;2388;53.582;9.962;2023-05-24T00:35:41;12.00;99.90
4749;DHT22;2388;53.582;9.962;2023-05-24T00:38:06;12.00;99.90
4749;DHT22;2388;53.582;9.962;2023-05-24T00:40:31;12.00;99.90
4749;DHT22;2388;53.582;9.962;2023-05-24T00:42:57;12.00;99.90
4749;DHT22;2388;53.582;9.962;2023-05-24T00:45:22;12.00;99.90
4749;DHT22;2388;53.582;9.962;2023-05-24T00:47:48;11.90;99.90
4749;DHT22;2388;53.582;9.962;2023-05-24T00:50:13;11.90;99.90
4749;DHT22;2388;53.582;9.962;2023-05-24T00:52:41;11.90;99.90
4749;DHT22;2388;53.582;9.962;2023-05-24T00:55:08;11.90;99.90
4749;DHT22;2388;53.582;9.962;2023-05-24T00:57:35;11.90;99.90
4749;DHT22;2388;53.582;9.962;2023-05-24T01:00:02;12.00;99.90
4749;DHT22;2388;53.582;9.962;2023-05-24T01:02:28;12.00;99.90
4749;DHT22;2388;53.582;9.962;2023-05-24T01:04:53;12.00;99.90
4749;DHT22;2388;53.582;9.962;2023-05-24T01:07:50;12.00;99.90
4749;DHT22;2388;53.582;9.962;2023-05-24T01:10:33;12.00;99.90
4749;DHT22;2388;53.582;9.962;2023-05-24T01:13:25;12.00;99.90
4749;DHT22;2388;53.582;9.962;2023-05-24T01:16:09;12.00;99.90
4749;DHT22;2388;53.582;9.962;2023-05-24T01:18:40;11.90;99.90
4749;DHT22;2388;53.582;9.962;2023-05-24T01:23:49;12.00;99.90
4749;DHT22;2388;53.582;9.962;2023-05-24T01:26:36;11.90;99.90
4749;DHT22;2388;53.582;9.962;2023-05-24T01:29:03;11.90;99.90
4749;DHT22;2388;53.582;9.962;2023-05-24T01:31:29;11.90;99.90
4749;DHT22;2388;53.582;9.962;2023-05-24T01:33:55;11.90;99.90
4749;DHT22;2388;53.582;9.962;2023-05-24T01:36:20;11.90;99.90
4749;DHT22;2388;53.582;9.962;2023-05-24T01:38:47;11.90;99.90
4749;DHT22;2388;53.582;9.962;2023-05-24T01:41:25;11.90;99.90
4749;DHT22;2388;53.582;9.962;2023-05-24T01:44:26;11.90;99.90
4749;DHT22;2388;53.582;9.962;2023-05-24T01:47:09;11.90;99.90
4749;DHT22;2388;53.582;9.962;2023-05-24T01:49:41;11.80;99.90
4749;DHT22;2388;53.582;9.962;2023-05-24T01:52:11;11.90;99.90
4749;DHT22;2388;53.582;9.962;2023-05-24T01:54:44;11.90;99.90
4749;DHT22;2388;53.582;9.962;2023-05-24T01:57:12;11.90;99.90
4749;DHT22;2388;53.582;9.962;2023-05-24T01:59:41;11.90;99.90
4749;DHT22;2388;53.582;9.962;2023-05-24T02:02:08;11.90;99.90
4749;DHT22;2388;53.582;9.962;2023-05-24T02:04:33;12.00;99.90
4749;DHT22;2388;53.582;9.962;2023-05-24T02:06:59;12.00;99.90
4749;DHT22;2388;53.582;9.962;2023-05-24T02:09:24;12.00;99.90
4749;DHT22;2388;53.582;9.962;2023-05-24T02:11:50;12.00;99.90
4749;DHT22;2388;53.582;9.962;2023-05-24T02:14:15;12.00;99.90
4749;DHT22;2388;53.582;9.962;2023-05-24T02:16:44;12.00;99.90
4749;DHT22;2388;53.582;9.962;2023-05-24T02:19:14;12.00;99.90
4749;DHT22;2388;53.582;9.962;2023-05-24T02:21:41;12.10;99.90
4749;DHT22;2388;53.582;9.962;2023-05-24T02:24:07;12.10;99.90
4749;DHT22;2388;53.582;9.962;2023-05-24T02:26:35;12.10;99.90
4749;DHT22;2388;53.582;9.962;2023-05-24T02:29:01;12.10;99.90
4749;DHT22;2388;53.582;9.962;2023-05-24T02:31:27;12.10;99.90
4749;DHT22;2388;53.582;9.962;2023-05-24T02:33:54;12.00;99.90
4749;DHT22;2388;53.582;9.962;2023-05-24T02:36:20;12.00;99.90
4749;DHT22;2388;53.582;9.962;2023-05-24T02:38:48;12.00;99.90
4749;DHT22;2388;53.582;9.962;2023-05-24T02:41:13;12.00;99.90
4749;DHT22;2388;53.582;9.962;2023-05-24T02:43:45;12.10;99.90
4749;DHT22;2388;53.582;9.962;2023-05-24T02:46:11;12.10;99.90
4749;DHT22;2388;53.582;9.962;2023-05-24T02:48:37;12.10;99.90
4749;DHT22;2388;53.582;9.962;2023-05-24T02:51:03;12.10;99.90
4749;DHT22;2388;53.582;9.962;2023-05-24T02:53:29;12.10;99.90
4749;DHT22;2388;53.582;9.962;2023-05-24T02:55:56;12.00;99.90
4749;DHT22;2388;53.582;9.962;2023-05-24T02:58:22;12.00;99.90
4749;DHT22;2388;53.582;9.962;2023-05-24T03:00:48;12.00;99.90
4749;DHT22;2388;53.582;9.962;2023-05-24T03:03:13;12.10;99.90
4749;DHT22;2388;53.582;9.962;2023-05-24T03:05:39;12.10;99.90
4749;DHT22;2388;53.582;9.962;2023-05-24T03:08:05;12.10;99.90
4749;DHT22;2388;53.582;9.962;2023-05-24T03:10:31;12.10;99.90
4749;DHT22;2388;53.582;9.962;2023-05-24T03:12:56;12.10;99.90
4749;DHT22;2388;53.582;9.962;2023-05-24T03:15:22;12.10;99.90
4749;DHT22;2388;53.582;9.962;2023-05-24T03:17:47;12.10;99.90
4749;DHT22;2388;53.582;9.962;2023-05-24T03:20:13;12.10;99.90
4749;DHT22;2388;53.582;9.962;2023-05-24T03:22:40;12.10;99.90
4749;DHT22;2388;53.582;9.962;2023-05-24T03:25:06;12.00;99.90
4749;DHT22;2388;53.582;9.962;2023-05-24T03:27:33;12.00;99.90
4749;DHT22;2388;53.582;9.962;2023-05-24T03:29:58;12.00;99.90
4749;DHT22;2388;53.582;9.962;2023-05-24T03:32:24;12.00;99.90
4749;DHT22;2388;53.582;9.962;2023-05-24T03:34:49;12.00;99.90
4749;DHT22;2388;53.582;9.962;2023-05-24T03:37:15;12.10;99.90
4749;DHT22;2388;53.582;9.962;2023-05-24T03:39:40;12.10;99.90
4749;DHT22;2388;53.582;9.962;2023-05-24T03:42:06;12.10;99.90
4749;DHT22;2388;53.582;9.962;2023-05-24T03:44:32;12.10;99.90
4749;DHT22;2388;53.582;9.962;2023-05-24T03:46:57;12.20;99.90
4749;DHT22;2388;53.582;9.962;2023-05-24T03:49:23;12.10;99.90
4749;DHT22;2388;53.582;9.962;2023-05-24T03:51:48;12.00;99.90
4749;DHT22;2388;53.582;9.962;2023-05-24T03:54:14;12.00;99.90
4749;DHT22;2388;53.582;9.962;2023-05-24T03:56:39;12.10;99.90
4749;DHT22;2388;53.582;9.962;2023-05-24T03:59:05;12.10;99.90
4749;DHT22;2388;53.582;9.962;2023-05-24T04:01:30;12.10;99.90
4749;DHT22;2388;53.582;9.962;2023-05-24T04:03:57;12.10;99.90
4749;DHT22;2388;53.582;9.962;2023-05-24T04:06:22;12.10;99.90
4749;DHT22;2388;53.582;9.962;2023-05-24T04:08:57;12.10;99.90
4749;DHT22;2388;53.582;9.962;2023-05-24T04:11:23;12.10;99.90
4749;DHT22;2388;53.582;9.962;2023-05-24T04:13:52;12.00;99.90
4749;DHT22;2388;53.582;9.962;2023-05-24T04:16:20;12.00;99.90
4749;DHT22;2388;53.582;9.962;2023-05-24T04:18:49;12.00;99.90
4749;DHT22;2388;53.582;9.962;2023-05-24T04:21:15;12.00;99.90
4749;DHT22;2388;53.582;9.962;2023-05-24T04:23:40;12.00;99.90
4749;DHT22;2388;53.582;9.962;2023-05-24T04:26:06;12.00;99.90
4749;DHT22;2388;53.582;9.962;2023-05-24T04:28:32;12.00;99.90
4749;DHT22;2388;53.582;9.962;2023-05-24T04:30:58;11.90;99.90
4749;DHT22;2388;53.582;9.962;2023-05-24T04:33:23;11.90;99.90
4749;DHT22;2388;53.582;9.962;2023-05-24T04:35:49;11.90;99.90
4749;DHT22;2388;53.582;9.962;2023-05-24T04:38:15;11.90;99.90
4749;DHT22;2388;53.582;9.962;2023-05-24T04:40:40;11.90;99.90
4749;DHT22;2388;53.582;9.962;2023-05-24T04:43:06;11.90;99.90
4749;DHT22;2388;53.582;9.962;2023-05-24T04:45:33;11.80;99.90
4749;DHT22;2388;53.582;9.962;2023-05-24T04:47:59;11.90;99.90
4749;DHT22;2388;53.582;9.962;2023-05-24T04:50:24;11.90;99.90
4749;DHT22;2388;53.582;9.962;2023-05-24T04:52:50;11.80;99.90
4749;DHT22;2388;53.582;9.962;2023-05-24T04:55:15;11.80;99.90
4749;DHT22;2388;53.582;9.962;2023-05-24T04:57:41;11.90;99.90
4749;DHT22;2388;53.582;9.962;2023-05-24T05:00:07;11.90;99.90
4749;DHT22;2388;53.582;9.962;2023-05-24T05:02:33;11.80;99.90
4749;DHT22;2388;53.582;9.962;2023-05-24T05:04:59;11.60;99.90
4749;DHT22;2388;53.582;9.962;2023-05-24T05:07:24;11.60;99.90
4749;DHT22;2388;53.582;9.962;2023-05-24T05:09:50;11.60;99.90
4749;DHT22;2388;53.582;9.962;2023-05-24T05:12:15;11.60;99.90
4749;DHT22;2388;53.582;9.962;2023-05-24T05:14:41;11.60;99.90
4749;DHT22;2388;53.582;9.962;2023-05-24T05:17:07;11.70;99.90
4749;DHT22;2388;53.582;9.962;2023-05-24T05:19:32;11.70;99.90
4749;DHT22;2388;53.582;9.962;2023-05-24T05:21:58;11.70;99.90
4749;DHT22;2388;53.582;9.962;2023-05-24T05:24:23;11.70;99.90
4749;DHT22;2388;53.582;9.962;2023-05-24T05:26:49;11.70;99.90
4749;DHT22;2388;53.582;9.962;2023-05-24T05:29:14;11.70;99.90
4749;DHT22;2388;53.582;9.962;2023-05-24T05:31:40;11.70;99.90
4749;DHT22;2388;53.582;9.962;2023-05-24T05:34:05;11.80;99.90
4749;DHT22;2388;53.582;9.962;2023-05-24T05:36:36;11.80;99.90
4749;DHT22;2388;53.582;9.962;2023-05-24T05:39:08;11.70;99.90
4749;DHT22;2388;53.582;9.962;2023-05-24T05:41:38;11.80;99.90
4749;DHT22;2388;53.582;9.962;2023-05-24T05:44:04;11.80;99.90
4749;DHT22;2388;53.582;9.962;2023-05-24T05:46:30;11.70;99.90
4749;DHT22;2388;53.582;9.962;2023-05-24T05:48:55;11.70;99.90
4749;DHT22;2388;53.582;9.962;2023-05-24T05:51:20;11.80;99.90
4749;DHT22;2388;53.582;9.962;2023-05-24T05:53:46;11.80;99.90
4749;DHT22;2388;53.582;9.962;2023-05-24T05:56:11;11.90;99.90
4749;DHT22;2388;53.582;9.962;2023-05-24T05:58:37;12.00;99.90
4749;DHT22;2388;53.582;9.962;2023-05-24T06:01:03;12.20;99.90
4749;DHT22;2388;53.582;9.962;2023-05-24T06:03:29;12.30;99.90
4749;DHT22;2388;53.582;9.962;2023-05-24T06:05:54;12.30;99.90
4749;DHT22;2388;53.582;9.962;2023-05-24T06:08:20;12.50;99.90
4749;DHT22;2388;53.582;9.962;2023-05-24T06:10:45;12.50;99.90
4749;DHT22;2388;53.582;9.962;2023-05-24T06:13:11;12.50;99.90
4749;DHT22;2388;53.582;9.962;2023-05-24T06:15:37;12.60;99.90
4749;DHT22;2388;53.582;9.962;2023-05-24T06:18:02;12.60;99.90
4749;DHT22;2388;53.582;9.962;2023-05-24T06:20:28;12.70;99.90
4749;DHT22;2388;53.582;9.962;2023-05-24T06:22:53;12.70;99.90
4749;DHT22;2388;53.582;9.962;2023-05-24T06:25:19;12.80;99.90
4749;DHT22;2388;53.582;9.962;2023-05-24T06:27:47;12.80;99.90
4749;DHT22;2388;53.582;9.962;2023-05-24T06:30:12;12.80;99.90
4749;DHT22;2388;53.582;9.962;2023-05-24T06:32:38;12.80;99.90
4749;DHT22;2388;53.582;9.962;2023-05-24T06:35:04;12.80;99.90
4749;DHT22;2388;53.582;9.962;2023-05-24T06:37:30;12.90;99.90
4749;DHT22;2388;53.582;9.962;2023-05-24T06:39:55;12.90;99.90
4749;DHT22;2388;53.582;9.962;2023-05-24T06:42:21;12.90;99.90
4749;DHT22;2388;53.582;9.962;2023-05-24T06:44:46;13.00;99.90
4749;DHT22;2388;53.582;9.962;2023-05-24T06:47:12;13.00;99.90
4749;DHT22;2388;53.582;9.962;2023-05-24T06:49:37;13.00;99.90
4749;DHT22;2388;53.582;9.962;2023-05-24T06:52:03;13.10;99.90
4749;DHT22;2388;53.582;9.962;2023-05-24T06:54:29;13.10;99.90
4749;DHT22;2388;53.582;9.962;2023-05-24T06:56:55;13.10;99.90
4749;DHT22;2388;53.582;9.962;2023-05-24T06:59:21;13.20;99.90
4749;DHT22;2388;53.582;9.962;2023-05-24T07:01:47;13.20;99.90
4749;DHT22;2388;53.582;9.962;2023-05-24T07:04:15;13.20;99.90
4749;DHT22;2388;53.582;9.962;2023-05-24T07:06:41;13.20;99.90
4749;DHT22;2388;53.582;9.962;2023-05-24T07:09:06;13.20;99.90
4749;DHT22;2388;53.582;9.962;2023-05-24T07:11:32;13.30;99.90
4749;DHT22;2388;53.582;9.962;2023-05-24T07:13:57;13.30;99.90
4749;DHT22;2388;53.582;9.962;2023-05-24T07:16:23;13.30;99.90
4749;DHT22;2388;53.582;9.962;2023-05-24T07:18:48;13.30;99.90
4749;DHT22;2388;53.582;9.962;2023-05-24T07:21:14;13.40;99.90
4749;DHT22;2388;53.582;9.962;2023-05-24T07:23:39;13.30;99.90
4749;DHT22;2388;53.582;9.962;2023-05-24T07:26:05;13.30;99.90
4749;DHT22;2388;53.582;9.962;2023-05-24T07:28:31;13.30;99.90
4749;DHT22;2388;53.582;9.962;2023-05-24T07:30:56;13.40;99.90
4749;DHT22;2388;53.582;9.962;2023-05-24T07:33:22;13.40;99.90
4749;DHT22;2388;53.582;9.962;2023-05-24T07:35:48;13.40;99.90
4749;DHT22;2388;53.582;9.962;2023-05-24T07:38:19;13.40;99.90
4749;DHT22;2388;53.582;9.962;2023-05-24T07:40:44;13.50;99.90
4749;DHT22;2388;53.582;9.962;2023-05-24T07:43:09;13.50;99.90
4749;DHT22;2388;53.582;9.962;2023-05-24T07:45:35;13.50;99.90
4749;DHT22;2388;53.582;9.962;2023-05-24T07:48:01;13.60;99.90
4749;DHT22;2388;53.582;9.962;2023-05-24T07:50:27;13.60;99.90
4749;DHT22;2388;53.582;9.962;2023-05-24T07:52:54;13.60;99.90
4749;DHT22;2388;53.582;9.962;2023-05-24T07:55:20;13.60;99.90
4749;DHT22;2388;53.582;9.962;2023-05-24T07:57:45;13.60;99.90
4749;DHT22;2388;53.582;9.962;2023-05-24T08:00:12;13.60;99.90
4749;DHT22;2388;53.582;9.962;2023-05-24T08:02:41;13.70;99.90
4749;DHT22;2388;53.582;9.962;2023-05-24T08:05:07;13.60;99.90
4749;DHT22;2388;53.582;9.962;2023-05-24T08:07:34;13.60;99.90
4749;DHT22;2388;53.582;9.962;2023-05-24T08:10:00;13.70;99.90
4749;DHT22;2388;53.582;9.962;2023-05-24T08:12:26;13.70;99.90
4749;DHT22;2388;53.582;9.962;2023-05-24T08:14:54;13.70;99.90
4749;DHT22;2388;53.582;9.962;2023-05-24T08:17:20;13.70;99.90
4749;DHT22;2388;53.582;9.962;2023-05-24T08:19:46;13.70;99.90
4749;DHT22;2388;53.582;9.962;2023-05-24T08:22:11;13.60;99.90
4749;DHT22;2388;53.582;9.962;2023-05-24T08:24:37;13.60;99.90
4749;DHT22;2388;53.582;9.962;2023-05-24T08:27:03;13.60;99.90
4749;DHT22;2388;53.582;9.962;2023-05-24T08:29:28;13.60;99.90
4749;DHT22;2388;53.582;9.962;2023-05-24T08:31:54;13.60;99.90
4749;DHT22;2388;53.582;9.962;2023-05-24T08:34:20;13.60;99.90
4749;DHT22;2388;53.582;9.962;2023-05-24T08:36:45;13.60;99.90
4749;DHT22;2388;53.582;9.962;2023-05-24T08:39:11;13.60;99.90
4749;DHT22;2388;53.582;9.962;2023-05-24T08:41:37;13.60;99.90
4749;DHT22;2388;53.582;9.962;2023-05-24T08:44:05;13.60;99.90
4749;DHT22;2388;53.582;9.962;2023-05-24T08:46:34;13.60;99.90
4749;DHT22;2388;53.582;9.962;2023-05-24T08:48:59;13.60;99.90
4749;DHT22;2388;53.582;9.962;2023-05-24T08:51:28;13.60;99.90
4749;DHT22;2388;53.582;9.962;2023-05-24T08:53:56;13.60;99.90
4749;DHT22;2388;53.582;9.962;2023-05-24T08:56:24;13.60;99.90
4749;DHT22;2388;53.582;9.962;2023-05-24T08:58:52;13.60;99.90
4749;DHT22;2388;53.582;9.962;2023-05-24T09:01:18;13.60;99.90
4749;DHT22;2388;53.582;9.962;2023-05-24T09:03:45;13.60;99.90
4749;DHT22;2388;53.582;9.962;2023-05-24T09:06:16;13.70;99.90
4749;DHT22;2388;53.582;9.962;2023-05-24T09:08:42;13.80;99.90
4749;DHT22;2388;53.582;9.962;2023-05-24T09:11:09;13.90;99.90
4749;DHT22;2388;53.582;9.962;2023-05-24T09:13:35;14.00;99.90
4749;DHT22;2388;53.582;9.962;2023-05-24T09:16:01;14.10;99.90
4749;DHT22;2388;53.582;9.962;2023-05-24T09:18:27;14.10;99.90
4749;DHT22;2388;53.582;9.962;2023-05-24T09:20:53;14.20;99.90
4749;DHT22;2388;53.582;9.962;2023-05-24T09:23:19;14.30;99.90
4749;DHT22;2388;53.582;9.962;2023-05-24T09:25:46;14.30;99.90
4749;DHT22;2388;53.582;9.962;2023-05-24T09:28:13;14.30;99.90
4749;DHT22;2388;53.582;9.962;2023-05-24T09:30:42;14.40;99.90
4749;DHT22;2388;53.582;9.962;2023-05-24T09:33:07;14.40;99.90
4749;DHT22;2388;53.582;9.962;2023-05-24T09:35:33;14.40;99.90
4749;DHT22;2388;53.582;9.962;2023-05-24T09:38:00;14.40;99.90
4749;DHT22;2388;53.582;9.962;2023-05-24T09:40:26;14.50;99.90
4749;DHT22;2388;53.582;9.962;2023-05-24T09:43:02;14.50;99.90
4749;DHT22;2388;53.582;9.962;2023-05-24T09:45:28;14.60;99.90
4749;DHT22;2388;53.582;9.962;2023-05-24T09:47:53;14.70;99.90
4749;DHT22;2388;53.582;9.962;2023-05-24T09:50:19;14.70;99.90
4749;DHT22;2388;53.582;9.962;2023-05-24T09:52:45;14.70;99.90
4749;DHT22;2388;53.582;9.962;2023-05-24T09:55:15;14.70;99.90
4749;DHT22;2388;53.582;9.962;2023-05-24T09:57:43;14.70;99.90
4749;DHT22;2388;53.582;9.962;2023-05-24T10:00:09;14.60;99.90
4749;DHT22;2388;53.582;9.962;2023-05-24T10:02:42;14.60;99.90
4749;DHT22;2388;53.582;9.962;2023-05-24T10:05:12;14.60;99.90
4749;DHT22;2388;53.582;9.962;2023-05-24T10:07:40;14.60;99.90
4749;DHT22;2388;53.582;9.962;2023-05-24T10:10:07;14.60;99.90
4749;DHT22;2388;53.582;9.962;2023-05-24T10:12:33;14.60;99.90
4749;DHT22;2388;53.582;9.962;2023-05-24T10:15:08;14.60;99.90
4749;DHT22;2388;53.582;9.962;2023-05-24T10:17:34;14.60;99.90
4749;DHT22;2388;53.582;9.962;2023-05-24T10:20:00;14.60;99.90
4749;DHT22;2388;53.582;9.962;2023-05-24T10:22:27;14.70;99.90
4749;DHT22;2388;53.582;9.962;2023-05-24T10:24:55;14.70;99.90
4749;DHT22;2388;53.582;9.962;2023-05-24T10:27:26;14.60;99.90
4749;DHT22;2388;53.582;9.962;2023-05-24T10:32:36;14.70;99.90
4749;DHT22;2388;53.582;9.962;2023-05-24T10:35:04;14.70;99.90
4749;DHT22;2388;53.582;9.962;2023-05-24T10:37:30;14.70;99.90
4749;DHT22;2388;53.582;9.962;2023-05-24T10:39:57;14.80;99.90
4749;DHT22;2388;53.582;9.962;2023-05-24T10:42:23;14.80;99.90
4749;DHT22;2388;53.582;9.962;2023-05-24T10:44:49;14.80;99.90
4749;DHT22;2388;53.582;9.962;2023-05-24T10:47:14;14.90;99.90
4749;DHT22;2388;53.582;9.962;2023-05-24T10:49:48;14.80;99.90
4749;DHT22;2388;53.582;9.962;2023-05-24T10:52:15;14.90;99.90
4749;DHT22;2388;53.582;9.962;2023-05-24T10:57:26;15.00;99.90
4749;DHT22;2388;53.582;9.962;2023-05-24T10:59:52;15.00;99.90
4749;DHT22;2388;53.582;9.962;2023-05-24T11:02:21;15.00;99.90
4749;DHT22;2388;53.582;9.962;2023-05-24T11:04:47;15.00;99.90
4749;DHT22;2388;53.582;9.962;2023-05-24T11:07:14;15.10;99.90
4749;DHT22;2388;53.582;9.962;2023-05-24T11:09:41;15.10;99.90
4749;DHT22;2388;53.582;9.962;2023-05-24T11:12:14;15.20;99.90
4749;DHT22;2388;53.582;9.962;2023-05-24T11:14:46;15.20;99.90
4749;DHT22;2388;53.582;9.962;2023-05-24T11:17:12;15.40;99.90
4749;DHT22;2388;53.582;9.962;2023-05-24T11:19:50;15.50;99.90
4749;DHT22;2388;53.582;9.962;2023-05-24T11:22:18;15.50;99.90
4749;DHT22;2388;53.582;9.962;2023-05-24T11:24:44;15.60;99.90
4749;DHT22;2388;53.582;9.962;2023-05-24T11:27:11;15.60;99.90
4749;DHT22;2388;53.582;9.962;2023-05-24T11:29:42;15.60;99.90
4749;DHT22;2388;53.582;9.962;2023-05-24T11:32:13;15.70;99.90
4749;DHT22;2388;53.582;9.962;2023-05-24T11:34:42;15.80;99.90
4749;DHT22;2388;53.582;9.962;2023-05-24T11:37:10;15.70;99.90
4749;DHT22;2388;53.582;9.962;2023-05-24T11:39:37;15.60;99.90
4749;DHT22;2388;53.582;9.962;2023-05-24T11:42:07;15.60;99.90
4749;DHT22;2388;53.582;9.962;2023-05-24T11:44:34;15.50;99.90
4749;DHT22;2388;53.582;9.962;2023-05-24T11:47:03;15.40;99.90
4749;DHT22;2388;53.582;9.962;2023-05-24T11:49:29;15.40;99.90
4749;DHT22;2388;53.582;9.962;2023-05-24T11:51:56;15.30;99.90
4749;DHT22;2388;53.582;9.962;2023-05-24T11:54:22;15.40;99.90
4749;DHT22;2388;53.582;9.962;2023-05-24T11:56:48;15.30;99.90
4749;DHT22;2388;53.582;9.962;2023-05-24T11:59:22;15.30;99.90
4749;DHT22;2388;53.582;9.962;2023-05-24T12:01:49;15.30;99.90
4749;DHT22;2388;53.582;9.962;2023-05-24T12:04:15;15.30;99.90
4749;DHT22;2388;53.582;9.962;2023-05-24T12:06:42;15.30;99.90
4749;DHT22;2388;53.582;9.962;2023-05-24T12:09:09;15.40;99.90
4749;DHT22;2388;53.582;9.962;2023-05-24T12:11:45;15.30;99.90
4749;DHT22;2388;53.582;9.962;2023-05-24T12:14:12;15.40;99.90
4749;DHT22;2388;53.582;9.962;2023-05-24T12:16:38;15.50;99.90
4749;DHT22;2388;53.582;9.962;2023-05-24T12:19:04;15.50;99.90
4749;DHT22;2388;53.582;9.962;2023-05-24T12:21:31;15.50;99.90
4749;DHT22;2388;53.582;9.962;2023-05-24T12:24:07;15.60;99.90
4749;DHT22;2388;53.582;9.962;2023-05-24T12:26:35;15.60;99.90
4749;DHT22;2388;53.582;9.962;2023-05-24T12:29:02;15.60;99.90
4749;DHT22;2388;53.582;9.962;2023-05-24T12:31:28;15.60;99.90
4749;DHT22;2388;53.582;9.962;2023-05-24T12:33:53;15.70;99.90
4749;DHT22;2388;53.582;9.962;2023-05-24T12:36:19;15.60;99.90
4749;DHT22;2388;53.582;9.962;2023-05-24T12:38:44;15.60;99.90
4749;DHT22;2388;53.582;9.962;2023-05-24T12:41:10;15.60;99.90
4749;DHT22;2388;53.582;9.962;2023-05-24T12:43:36;15.60;99.90
4749;DHT22;2388;53.582;9.962;2023-05-24T12:46:03;15.60;99.90
4749;DHT22;2388;53.582;9.962;2023-05-24T12:48:28;15.60;99.90
4749;DHT22;2388;53.582;9.962;2023-05-24T12:50:54;15.60;99.90
4749;DHT22;2388;53.582;9.962;2023-05-24T12:53:19;15.60;99.90
4749;DHT22;2388;53.582;9.962;2023-05-24T12:55:48;15.70;99.90
4749;DHT22;2388;53.582;9.962;2023-05-24T12:58:15;15.60;99.90
4749;DHT22;2388;53.582;9.962;2023-05-24T13:00:41;15.70;99.90
4749;DHT22;2388;53.582;9.962;2023-05-24T13:03:09;15.70;99.90
4749;DHT22;2388;53.582;9.962;2023-05-24T13:05:34;15.80;99.90
4749;DHT22;2388;53.582;9.962;2023-05-24T13:08:00;15.80;99.90
4749;DHT22;2388;53.582;9.962;2023-05-24T13:10:26;15.80;99.90
4749;DHT22;2388;53.582;9.962;2023-05-24T13:12:52;15.80;99.90
4749;DHT22;2388;53.582;9.962;2023-05-24T13:15:18;15.80;99.90
4749;DHT22;2388;53.582;9.962;2023-05-24T13:17:44;15.80;99.90
4749;DHT22;2388;53.582;9.962;2023-05-24T13:20:10;15.80;99.90
4749;DHT22;2388;53.582;9.962;2023-05-24T13:22:37;15.80;99.90
4749;DHT22;2388;53.582;9.962;2023-05-24T13:25:04;15.80;99.90
4749;DHT22;2388;53.582;9.962;2023-05-24T13:27:29;15.80;99.90
4749;DHT22;2388;53.582;9.962;2023-05-24T13:29:55;15.80;99.90
4749;DHT22;2388;53.582;9.962;2023-05-24T13:32:21;15.80;99.90
4749;DHT22;2388;53.582;9.962;2023-05-24T13:34:47;15.80;99.90
4749;DHT22;2388;53.582;9.962;2023-05-24T13:37:13;15.80;99.90
4749;DHT22;2388;53.582;9.962;2023-05-24T13:39:40;15.90;99.90
4749;DHT22;2388;53.582;9.962;2023-05-24T13:42:06;15.90;99.90
4749;DHT22;2388;53.582;9.962;2023-05-24T13:44:31;16.00;99.90
4749;DHT22;2388;53.582;9.962;2023-05-24T13:46:57;16.10;99.90
4749;DHT22;2388;53.582;9.962;2023-05-24T13:49:22;16.10;99.90
4749;DHT22;2388;53.582;9.962;2023-05-24T13:51:48;16.20;99.90
4749;DHT22;2388;53.582;9.962;2023-05-24T13:54:14;16.20;99.90
4749;DHT22;2388;53.582;9.962;2023-05-24T13:56:40;16.40;99.90
4749;DHT22;2388;53.582;9.962;2023-05-24T13:59:08;16.50;99.90
4749;DHT22;2388;53.582;9.962;2023-05-24T14:01:34;16.50;99.90
4749;DHT22;2388;53.582;9.962;2023-05-24T14:04:04;16.50;99.90
4749;DHT22;2388;53.582;9.962;2023-05-24T14:06:30;16.50;99.90
4749;DHT22;2388;53.582;9.962;2023-05-24T14:08:56;16.50;99.90
4749;DHT22;2388;53.582;9.962;2023-05-24T14:11:21;16.50;99.90
4749;DHT22;2388;53.582;9.962;2023-05-24T14:13:49;16.50;99.90
4749;DHT22;2388;53.582;9.962;2023-05-24T14:16:14;16.60;99.90
4749;DHT22;2388;53.582;9.962;2023-05-24T14:18:40;16.60;99.90
4749;DHT22;2388;53.582;9.962;2023-05-24T14:21:06;16.70;99.90
4749;DHT22;2388;53.582;9.962;2023-05-24T14:23:31;16.70;99.90
4749;DHT22;2388;53.582;9.962;2023-05-24T14:25:57;16.70;99.90
4749;DHT22;2388;53.582;9.962;2023-05-24T14:28:23;16.70;99.90
4749;DHT22;2388;53.582;9.962;2023-05-24T14:30:49;16.60;99.90
4749;DHT22;2388;53.582;9.962;2023-05-24T14:33:14;16.50;99.90
4749;DHT22;2388;53.582;9.962;2023-05-24T14:35:40;16.60;99.90
4749;DHT22;2388;53.582;9.962;2023-05-24T14:38:07;16.60;99.90
4749;DHT22;2388;53.582;9.962;2023-05-24T14:40:33;16.60;99.90
4749;DHT22;2388;53.582;9.962;2023-05-24T14:43:01;16.70;99.90
4749;DHT22;2388;53.582;9.962;2023-05-24T14:45:28;16.70;99.90
4749;DHT22;2388;53.582;9.962;2023-05-24T14:47:53;16.80;99.90
4749;DHT22;2388;53.582;9.962;2023-05-24T14:50:19;16.80;99.90
4749;DHT22;2388;53.582;9.962;2023-05-24T14:52:45;16.80;99.90
4749;DHT22;2388;53.582;9.962;2023-05-24T14:55:11;16.90;99.90
4749;DHT22;2388;53.582;9.962;2023-05-24T14:57:37;16.90;99.90
4749;DHT22;2388;53.582;9.962;2023-05-24T15:00:02;16.80;99.90
4749;DHT22;2388;53.582;9.962;2023-05-24T15:02:28;16.80;99.90
4749;DHT22;2388;53.582;9.962;2023-05-24T15:04:53;16.70;99.90
4749;DHT22;2388;53.582;9.962;2023-05-24T15:07:19;16.80;99.90
4749;DHT22;2388;53.582;9.962;2023-05-24T15:09:44;16.80;99.90
4749;DHT22;2388;53.582;9.962;2023-05-24T15:12:10;16.80;99.90
4749;DHT22;2388;53.582;9.962;2023-05-24T15:14:35;16.80;99.90
4749;DHT22;2388;53.582;9.962;2023-05-24T15:17:01;16.90;99.90
4749;DHT22;2388;53.582;9.962;2023-05-24T15:19:27;16.90;99.90
4749;DHT22;2388;53.582;9.962;2023-05-24T15:21:52;16.90;99.90
4749;DHT22;2388;53.582;9.962;2023-05-24T15:24:18;16.90;99.90
4749;DHT22;2388;53.582;9.962;2023-05-24T15:26:43;16.90;99.90
4749;DHT22;2388;53.582;9.962;2023-05-24T15:29:08;16.80;99.90
4749;DHT22;2388;53.582;9.962;2023-05-24T15:31:34;16.80;99.90
4749;DHT22;2388;53.582;9.962;2023-05-24T15:34:00;16.80;99.90
4749;DHT22;2388;53.582;9.962;2023-05-24T15:36:26;16.80;99.90
4749;DHT22;2388;53.582;9.962;2023-05-24T15:38:51;16.80;99.90
4749;DHT22;2388;53.582;9.962;2023-05-24T15:41:17;16.80;99.90
4749;DHT22;2388;53.582;9.962;2023-05-24T15:43:42;16.80;99.90
4749;DHT22;2388;53.582;9.962;2023-05-24T15:46:08;16.80;99.90
4749;DHT22;2388;53.582;9.962;2023-05-24T15:48:33;16.80;99.90
4749;DHT22;2388;53.582;9.962;2023-05-24T15:50:59;16.80;99.90
4749;DHT22;2388;53.582;9.962;2023-05-24T15:53:24;16.70;99.90
4749;DHT22;2388;53.582;9.962;2023-05-24T15:55:50;16.70;99.90
4749;DHT22;2388;53.582;9.962;2023-05-24T15:58:15;16.70;99.90
4749;DHT22;2388;53.582;9.962;2023-05-24T16:00:41;16.60;99.90
4749;DHT22;2388;53.582;9.962;2023-05-24T16:03:07;16.60;99.90
4749;DHT22;2388;53.582;9.962;2023-05-24T16:05:32;16.60;99.90
4749;DHT22;2388;53.582;9.962;2023-05-24T16:07:58;16.60;99.90